sensor_id;sensor_type;location;lat;lon;timestamp;P1;durP1;ratioP1;P2;durP2;ratioP2
6027;SDS011;3042;43.194;27.646;2022-11-12T00:00:16;15.17;;;12.60;;
6027;SDS011;3042;43.194;27.646;2022-11-12T00:02:44;21.30;;;13.93;;
6027;SDS011;3042;43.194;27.646;2022-11-12T00:05:11;17.63;;;13.00;;
6027;SDS011;3042;43.194;27.646;2022-11-12T00:07:38;13.63;;;10.87;;
6027;SDS011;3042;43.194;27.646;2022-11-12T00:10:06;11.20;;;10.07;;
6027;SDS011;3042;43.194;27.646;2022-11-12T00:12:34;17.90;;;13.07;;
6027;SDS011;3042;43.194;27.646;2022-11-12T00:15:03;17.67;;;12.43;;
6027;SDS011;3042;43.194;27.646;2022-11-12T00:17:31;13.57;;;11.17;;
6027;SDS011;3042;43.194;27.646;2022-11-12T00:19:59;14.67;;;12.63;;
6027;SDS011;3042;43.194;27.646;2022-11-12T00:22:26;12.67;;;10.63;;
6027;SDS011;3042;43.194;27.646;2022-11-12T00:24:53;13.07;;;11.07;;
6027;SDS011;3042;43.194;27.646;2022-11-12T00:27:20;16.00;;;9.70;;
6027;SDS011;3042;43.194;27.646;2022-11-12T00:29:48;14.03;;;9.80;;
6027;SDS011;3042;43.194;27.646;2022-11-12T00:32:16;13.53;;;10.67;;
6027;SDS011;3042;43.194;27.646;2022-11-12T00:34:44;26.23;;;16.80;;
6027;SDS011;3042;43.194;27.646;2022-11-12T00:37:11;12.20;;;10.90;;
6027;SDS011;3042;43.194;27.646;2022-11-12T00:39:38;13.73;;;10.20;;
6027;SDS011;3042;43.194;27.646;2022-11-12T00:42:06;12.33;;;10.50;;
6027;SDS011;3042;43.194;27.646;2022-11-12T00:44:33;12.67;;;11.00;;
6027;SDS011;3042;43.194;27.646;2022-11-12T00:47:00;13.60;;;9.50;;
6027;SDS011;3042;43.194;27.646;2022-11-12T00:49:29;15.60;;;10.50;;
6027;SDS011;3042;43.194;27.646;2022-11-12T00:51:56;12.13;;;9.63;;
6027;SDS011;3042;43.194;27.646;2022-11-12T00:54:24;11.00;;;9.47;;
6027;SDS011;3042;43.194;27.646;2022-11-12T00:56:51;14.10;;;10.27;;
6027;SDS011;3042;43.194;27.646;2022-11-12T00:59:18;13.50;;;11.20;;
6027;SDS011;3042;43.194;27.646;2022-11-12T01:01:45;15.60;;;9.97;;
6027;SDS011;3042;43.194;27.646;2022-11-12T01:04:13;12.77;;;10.90;;
6027;SDS011;3042;43.194;27.646;2022-11-12T01:06:41;15.90;;;9.97;;
6027;SDS011;3042;43.194;27.646;2022-11-12T01:09:09;14.93;;;11.27;;
6027;SDS011;3042;43.194;27.646;2022-11-12T01:11:36;19.80;;;12.10;;
6027;SDS011;3042;43.194;27.646;2022-11-12T01:14:06;16.73;;;11.20;;
6027;SDS011;3042;43.194;27.646;2022-11-12T01:16:36;11.47;;;9.53;;
6027;SDS011;3042;43.194;27.646;2022-11-12T01:19:05;19.83;;;10.60;;
6027;SDS011;3042;43.194;27.646;2022-11-12T01:21:36;14.70;;;10.13;;
6027;SDS011;3042;43.194;27.646;2022-11-12T01:24:07;17.00;;;11.03;;
6027;SDS011;3042;43.194;27.646;2022-11-12T01:26:35;16.23;;;12.30;;
6027;SDS011;3042;43.194;27.646;2022-11-12T01:29:03;18.60;;;10.80;;
6027;SDS011;3042;43.194;27.646;2022-11-12T01:31:31;47.33;;;30.00;;
6027;SDS011;3042;43.194;27.646;2022-11-12T01:34:00;39.73;;;27.60;;
6027;SDS011;3042;43.194;27.646;2022-11-12T01:36:31;43.77;;;25.83;;
6027;SDS011;3042;43.194;27.646;2022-11-12T01:39:00;38.17;;;23.90;;
6027;SDS011;3042;43.194;27.646;2022-11-12T01:41:30;37.73;;;24.10;;
6027;SDS011;3042;43.194;27.646;2022-11-12T01:44:12;33.27;;;23.00;;
6027;SDS011;3042;43.194;27.646;2022-11-12T01:46:54;26.53;;;17.70;;
6027;SDS011;3042;43.194;27.646;2022-11-12T01:49:27;22.40;;;14.20;;
6027;SDS011;3042;43.194;27.646;2022-11-12T01:51:57;24.37;;;15.70;;
6027;SDS011;3042;43.194;27.646;2022-11-12T01:54:34;20.47;;;13.67;;
6027;SDS011;3042;43.194;27.646;2022-11-12T01:57:03;19.00;;;14.07;;
6027;SDS011;3042;43.194;27.646;2022-11-12T01:59:34;24.83;;;14.40;;
6027;SDS011;3042;43.194;27.646;2022-11-12T02:02:07;16.87;;;11.53;;
6027;SDS011;3042;43.194;27.646;2022-11-12T02:04:35;16.30;;;11.23;;
6027;SDS011;3042;43.194;27.646;2022-11-12T02:07:04;18.03;;;11.53;;
6027;SDS011;3042;43.194;27.646;2022-11-12T02:09:32;18.50;;;10.80;;
6027;SDS011;3042;43.194;27.646;2022-11-12T02:12:01;18.80;;;10.20;;
6027;SDS011;3042;43.194;27.646;2022-11-12T02:14:31;21.83;;;9.87;;
6027;SDS011;3042;43.194;27.646;2022-11-12T02:16:58;12.80;;;9.70;;
6027;SDS011;3042;43.194;27.646;2022-11-12T02:19:26;17.57;;;9.63;;
6027;SDS011;3042;43.194;27.646;2022-11-12T02:21:55;12.77;;;10.00;;
6027;SDS011;3042;43.194;27.646;2022-11-12T02:24:34;10.00;;;8.90;;
6027;SDS011;3042;43.194;27.646;2022-11-12T02:27:04;11.33;;;9.67;;
6027;SDS011;3042;43.194;27.646;2022-11-12T02:29:32;12.63;;;9.57;;
6027;SDS011;3042;43.194;27.646;2022-11-12T02:32:00;11.00;;;8.83;;
6027;SDS011;3042;43.194;27.646;2022-11-12T02:34:27;12.63;;;9.07;;
6027;SDS011;3042;43.194;27.646;2022-11-12T02:36:56;23.07;;;15.63;;
6027;SDS011;3042;43.194;27.646;2022-11-12T02:39:23;13.20;;;11.60;;
6027;SDS011;3042;43.194;27.646;2022-11-12T02:41:51;13.13;;;11.33;;
6027;SDS011;3042;43.194;27.646;2022-11-12T02:44:18;19.70;;;13.17;;
6027;SDS011;3042;43.194;27.646;2022-11-12T02:46:45;19.47;;;13.50;;
6027;SDS011;3042;43.194;27.646;2022-11-12T02:49:12;21.97;;;15.70;;
6027;SDS011;3042;43.194;27.646;2022-11-12T02:51:40;22.77;;;15.77;;
6027;SDS011;3042;43.194;27.646;2022-11-12T02:54:08;19.87;;;13.73;;
6027;SDS011;3042;43.194;27.646;2022-11-12T02:56:36;21.67;;;13.77;;
6027;SDS011;3042;43.194;27.646;2022-11-12T02:59:03;17.73;;;13.50;;
6027;SDS011;3042;43.194;27.646;2022-11-12T03:01:30;18.57;;;14.00;;
6027;SDS011;3042;43.194;27.646;2022-11-12T03:03:58;24.00;;;13.90;;
6027;SDS011;3042;43.194;27.646;2022-11-12T03:06:25;20.10;;;14.00;;
6027;SDS011;3042;43.194;27.646;2022-11-12T03:08:52;16.87;;;12.40;;
6027;SDS011;3042;43.194;27.646;2022-11-12T03:11:21;17.60;;;14.13;;
6027;SDS011;3042;43.194;27.646;2022-11-12T03:13:49;17.70;;;12.50;;
6027;SDS011;3042;43.194;27.646;2022-11-12T03:16:16;18.17;;;12.70;;
6027;SDS011;3042;43.194;27.646;2022-11-12T03:18:43;28.00;;;15.10;;
6027;SDS011;3042;43.194;27.646;2022-11-12T03:21:11;23.90;;;15.53;;
6027;SDS011;3042;43.194;27.646;2022-11-12T03:23:38;40.83;;;19.57;;
6027;SDS011;3042;43.194;27.646;2022-11-12T03:26:05;41.20;;;23.10;;
6027;SDS011;3042;43.194;27.646;2022-11-12T03:28:34;28.63;;;19.40;;
6027;SDS011;3042;43.194;27.646;2022-11-12T03:31:01;25.57;;;18.90;;
6027;SDS011;3042;43.194;27.646;2022-11-12T03:33:28;35.37;;;21.83;;
6027;SDS011;3042;43.194;27.646;2022-11-12T03:35:56;25.13;;;16.20;;
6027;SDS011;3042;43.194;27.646;2022-11-12T03:38:23;23.50;;;17.47;;
6027;SDS011;3042;43.194;27.646;2022-11-12T03:40:50;16.67;;;12.40;;
6027;SDS011;3042;43.194;27.646;2022-11-12T03:43:17;20.73;;;12.83;;
6027;SDS011;3042;43.194;27.646;2022-11-12T03:45:46;24.50;;;13.50;;
6027;SDS011;3042;43.194;27.646;2022-11-12T03:48:13;20.47;;;14.17;;
6027;SDS011;3042;43.194;27.646;2022-11-12T03:50:40;25.03;;;14.23;;
6027;SDS011;3042;43.194;27.646;2022-11-12T03:53:08;22.37;;;14.20;;
6027;SDS011;3042;43.194;27.646;2022-11-12T03:55:35;13.30;;;10.50;;
6027;SDS011;3042;43.194;27.646;2022-11-12T03:58:02;10.93;;;9.27;;
6027;SDS011;3042;43.194;27.646;2022-11-12T04:00:30;10.07;;;8.07;;
6027;SDS011;3042;43.194;27.646;2022-11-12T04:02:59;15.77;;;11.57;;
6027;SDS011;3042;43.194;27.646;2022-11-12T04:05:26;22.00;;;14.30;;
6027;SDS011;3042;43.194;27.646;2022-11-12T04:08:12;13.93;;;10.83;;
6027;SDS011;3042;43.194;27.646;2022-11-12T04:10:58;17.87;;;10.63;;
6027;SDS011;3042;43.194;27.646;2022-11-12T04:13:26;20.50;;;11.23;;
6027;SDS011;3042;43.194;27.646;2022-11-12T04:15:52;15.60;;;10.87;;
6027;SDS011;3042;43.194;27.646;2022-11-12T04:18:35;19.03;;;13.57;;
6027;SDS011;3042;43.194;27.646;2022-11-12T04:21:19;20.63;;;13.13;;
6027;SDS011;3042;43.194;27.646;2022-11-12T04:24:04;17.30;;;11.33;;
6027;SDS011;3042;43.194;27.646;2022-11-12T04:26:32;13.23;;;10.80;;
6027;SDS011;3042;43.194;27.646;2022-11-12T04:28:58;13.73;;;11.47;;
6027;SDS011;3042;43.194;27.646;2022-11-12T04:31:42;14.50;;;12.13;;
6027;SDS011;3042;43.194;27.646;2022-11-12T04:34:11;12.73;;;9.67;;
6027;SDS011;3042;43.194;27.646;2022-11-12T04:36:58;12.03;;;9.33;;
6027;SDS011;3042;43.194;27.646;2022-11-12T04:39:25;16.23;;;12.20;;
6027;SDS011;3042;43.194;27.646;2022-11-12T04:41:53;12.70;;;11.30;;
6027;SDS011;3042;43.194;27.646;2022-11-12T04:44:37;28.13;;;18.10;;
6027;SDS011;3042;43.194;27.646;2022-11-12T04:47:26;24.40;;;16.47;;
6027;SDS011;3042;43.194;27.646;2022-11-12T04:49:57;24.30;;;16.03;;
6027;SDS011;3042;43.194;27.646;2022-11-12T04:52:25;16.50;;;13.40;;
6027;SDS011;3042;43.194;27.646;2022-11-12T04:54:53;20.97;;;14.47;;
6027;SDS011;3042;43.194;27.646;2022-11-12T04:57:20;19.90;;;14.73;;
6027;SDS011;3042;43.194;27.646;2022-11-12T04:59:48;25.80;;;18.43;;
6027;SDS011;3042;43.194;27.646;2022-11-12T05:02:16;26.60;;;19.67;;
6027;SDS011;3042;43.194;27.646;2022-11-12T05:04:43;29.90;;;20.27;;
6027;SDS011;3042;43.194;27.646;2022-11-12T05:07:12;27.60;;;19.47;;
6027;SDS011;3042;43.194;27.646;2022-11-12T05:09:40;26.17;;;19.57;;
6027;SDS011;3042;43.194;27.646;2022-11-12T05:12:08;24.63;;;18.37;;
6027;SDS011;3042;43.194;27.646;2022-11-12T05:14:35;15.90;;;12.97;;
6027;SDS011;3042;43.194;27.646;2022-11-12T05:17:03;10.40;;;8.90;;
6027;SDS011;3042;43.194;27.646;2022-11-12T05:19:31;11.57;;;8.90;;
6027;SDS011;3042;43.194;27.646;2022-11-12T05:21:59;25.43;;;16.70;;
6027;SDS011;3042;43.194;27.646;2022-11-12T05:24:38;12.80;;;8.87;;
6027;SDS011;3042;43.194;27.646;2022-11-12T05:27:08;9.77;;;8.33;;
6027;SDS011;3042;43.194;27.646;2022-11-12T05:29:36;19.57;;;9.67;;
6027;SDS011;3042;43.194;27.646;2022-11-12T05:32:04;11.07;;;9.90;;
6027;SDS011;3042;43.194;27.646;2022-11-12T05:34:32;11.57;;;8.80;;
6027;SDS011;3042;43.194;27.646;2022-11-12T05:37:00;14.77;;;11.37;;
6027;SDS011;3042;43.194;27.646;2022-11-12T05:39:28;21.00;;;15.37;;
6027;SDS011;3042;43.194;27.646;2022-11-12T05:41:57;14.83;;;9.20;;
6027;SDS011;3042;43.194;27.646;2022-11-12T05:44:25;12.37;;;10.10;;
6027;SDS011;3042;43.194;27.646;2022-11-12T05:46:52;12.77;;;11.07;;
6027;SDS011;3042;43.194;27.646;2022-11-12T05:49:19;12.27;;;9.97;;
6027;SDS011;3042;43.194;27.646;2022-11-12T05:51:47;10.80;;;9.60;;
6027;SDS011;3042;43.194;27.646;2022-11-12T05:54:14;12.50;;;10.53;;
6027;SDS011;3042;43.194;27.646;2022-11-12T05:56:41;12.10;;;9.57;;
6027;SDS011;3042;43.194;27.646;2022-11-12T05:59:10;18.07;;;11.77;;
6027;SDS011;3042;43.194;27.646;2022-11-12T06:01:39;21.93;;;12.80;;
6027;SDS011;3042;43.194;27.646;2022-11-12T06:04:09;13.87;;;12.00;;
6027;SDS011;3042;43.194;27.646;2022-11-12T06:06:37;16.93;;;12.20;;
6027;SDS011;3042;43.194;27.646;2022-11-12T06:09:05;17.97;;;12.00;;
6027;SDS011;3042;43.194;27.646;2022-11-12T06:11:32;20.10;;;13.00;;
6027;SDS011;3042;43.194;27.646;2022-11-12T06:14:00;15.10;;;11.83;;
6027;SDS011;3042;43.194;27.646;2022-11-12T06:16:30;20.90;;;14.43;;
6027;SDS011;3042;43.194;27.646;2022-11-12T06:18:57;24.80;;;14.50;;
6027;SDS011;3042;43.194;27.646;2022-11-12T06:21:25;23.30;;;15.47;;
6027;SDS011;3042;43.194;27.646;2022-11-12T06:23:53;28.93;;;19.00;;
6027;SDS011;3042;43.194;27.646;2022-11-12T06:26:21;33.30;;;19.30;;
6027;SDS011;3042;43.194;27.646;2022-11-12T06:28:49;38.53;;;26.00;;
6027;SDS011;3042;43.194;27.646;2022-11-12T06:31:17;44.73;;;24.07;;
6027;SDS011;3042;43.194;27.646;2022-11-12T06:33:46;29.60;;;22.47;;
6027;SDS011;3042;43.194;27.646;2022-11-12T06:36:15;35.10;;;20.53;;
6027;SDS011;3042;43.194;27.646;2022-11-12T06:38:43;25.70;;;17.20;;
6027;SDS011;3042;43.194;27.646;2022-11-12T06:41:11;25.43;;;13.63;;
6027;SDS011;3042;43.194;27.646;2022-11-12T06:43:38;19.93;;;13.10;;
6027;SDS011;3042;43.194;27.646;2022-11-12T06:46:07;13.47;;;11.57;;
6027;SDS011;3042;43.194;27.646;2022-11-12T06:48:36;17.03;;;11.30;;
6027;SDS011;3042;43.194;27.646;2022-11-12T06:51:09;12.40;;;10.23;;
6027;SDS011;3042;43.194;27.646;2022-11-12T06:53:41;14.33;;;10.00;;
6027;SDS011;3042;43.194;27.646;2022-11-12T06:56:08;15.00;;;10.10;;
6027;SDS011;3042;43.194;27.646;2022-11-12T06:58:38;12.63;;;10.73;;
6027;SDS011;3042;43.194;27.646;2022-11-12T07:01:06;18.60;;;12.10;;
6027;SDS011;3042;43.194;27.646;2022-11-12T07:03:36;13.77;;;10.33;;
6027;SDS011;3042;43.194;27.646;2022-11-12T07:06:04;16.23;;;10.00;;
6027;SDS011;3042;43.194;27.646;2022-11-12T07:08:34;22.97;;;11.20;;
6027;SDS011;3042;43.194;27.646;2022-11-12T07:11:02;11.47;;;9.87;;
6027;SDS011;3042;43.194;27.646;2022-11-12T07:13:30;19.00;;;12.67;;
6027;SDS011;3042;43.194;27.646;2022-11-12T07:15:58;25.50;;;14.70;;
6027;SDS011;3042;43.194;27.646;2022-11-12T07:18:26;25.87;;;17.90;;
6027;SDS011;3042;43.194;27.646;2022-11-12T07:20:56;17.50;;;13.10;;
6027;SDS011;3042;43.194;27.646;2022-11-12T07:23:25;25.63;;;13.83;;
6027;SDS011;3042;43.194;27.646;2022-11-12T07:25:57;21.13;;;11.60;;
6027;SDS011;3042;43.194;27.646;2022-11-12T07:28:25;39.47;;;20.67;;
6027;SDS011;3042;43.194;27.646;2022-11-12T07:30:56;77.50;;;38.07;;
6027;SDS011;3042;43.194;27.646;2022-11-12T07:33:24;80.77;;;43.37;;
6027;SDS011;3042;43.194;27.646;2022-11-12T07:35:56;38.20;;;26.70;;
6027;SDS011;3042;43.194;27.646;2022-11-12T07:38:25;86.90;;;47.97;;
6027;SDS011;3042;43.194;27.646;2022-11-12T07:40:58;17.63;;;11.67;;
6027;SDS011;3042;43.194;27.646;2022-11-12T07:43:27;22.63;;;14.47;;
6027;SDS011;3042;43.194;27.646;2022-11-12T07:45:58;19.33;;;11.00;;
6027;SDS011;3042;43.194;27.646;2022-11-12T07:48:25;9.27;;;8.43;;
6027;SDS011;3042;43.194;27.646;2022-11-12T07:50:58;14.80;;;9.47;;
6027;SDS011;3042;43.194;27.646;2022-11-12T07:53:26;37.17;;;16.43;;
6027;SDS011;3042;43.194;27.646;2022-11-12T07:55:54;77.87;;;44.83;;
6027;SDS011;3042;43.194;27.646;2022-11-12T07:58:28;47.43;;;30.10;;
6027;SDS011;3042;43.194;27.646;2022-11-12T08:00:59;53.00;;;37.60;;
6027;SDS011;3042;43.194;27.646;2022-11-12T08:03:33;76.27;;;45.73;;
6027;SDS011;3042;43.194;27.646;2022-11-12T08:06:01;75.43;;;45.57;;
6027;SDS011;3042;43.194;27.646;2022-11-12T08:08:28;86.83;;;53.87;;
6027;SDS011;3042;43.194;27.646;2022-11-12T08:10:56;99.77;;;60.37;;
6027;SDS011;3042;43.194;27.646;2022-11-12T08:13:23;115.00;;;70.13;;
6027;SDS011;3042;43.194;27.646;2022-11-12T08:15:52;90.43;;;52.43;;
6027;SDS011;3042;43.194;27.646;2022-11-12T08:18:23;145.13;;;67.67;;
6027;SDS011;3042;43.194;27.646;2022-11-12T08:20:50;80.50;;;49.93;;
6027;SDS011;3042;43.194;27.646;2022-11-12T08:23:17;79.00;;;50.67;;
6027;SDS011;3042;43.194;27.646;2022-11-12T08:25:44;55.57;;;39.67;;
6027;SDS011;3042;43.194;27.646;2022-11-12T08:28:11;38.60;;;16.00;;
6027;SDS011;3042;43.194;27.646;2022-11-12T08:30:39;8.63;;;7.80;;
6027;SDS011;3042;43.194;27.646;2022-11-12T08:33:07;8.20;;;7.50;;
6027;SDS011;3042;43.194;27.646;2022-11-12T08:35:36;9.70;;;8.90;;
6027;SDS011;3042;43.194;27.646;2022-11-12T08:38:04;10.27;;;6.50;;
6027;SDS011;3042;43.194;27.646;2022-11-12T08:40:34;5.37;;;4.97;;
6027;SDS011;3042;43.194;27.646;2022-11-12T08:43:04;5.83;;;4.80;;
6027;SDS011;3042;43.194;27.646;2022-11-12T08:45:32;5.07;;;4.77;;
6027;SDS011;3042;43.194;27.646;2022-11-12T08:48:01;5.60;;;5.10;;
6027;SDS011;3042;43.194;27.646;2022-11-12T08:50:32;6.57;;;6.07;;
6027;SDS011;3042;43.194;27.646;2022-11-12T08:52:59;35.17;;;27.40;;
6027;SDS011;3042;43.194;27.646;2022-11-12T08:55:27;36.80;;;27.67;;
6027;SDS011;3042;43.194;27.646;2022-11-12T08:57:54;64.93;;;46.77;;
6027;SDS011;3042;43.194;27.646;2022-11-12T09:00:26;13.93;;;11.30;;
6027;SDS011;3042;43.194;27.646;2022-11-12T09:02:53;6.27;;;5.87;;
6027;SDS011;3042;43.194;27.646;2022-11-12T09:05:21;5.60;;;5.10;;
6027;SDS011;3042;43.194;27.646;2022-11-12T09:07:56;6.93;;;6.23;;
6027;SDS011;3042;43.194;27.646;2022-11-12T09:10:24;5.70;;;5.20;;
6027;SDS011;3042;43.194;27.646;2022-11-12T09:12:52;5.20;;;4.90;;
6027;SDS011;3042;43.194;27.646;2022-11-12T09:15:19;5.17;;;4.97;;
6027;SDS011;3042;43.194;27.646;2022-11-12T09:17:53;5.73;;;5.30;;
6027;SDS011;3042;43.194;27.646;2022-11-12T09:20:20;7.13;;;5.80;;
6027;SDS011;3042;43.194;27.646;2022-11-12T09:22:48;8.57;;;5.67;;
6027;SDS011;3042;43.194;27.646;2022-11-12T09:25:17;10.07;;;6.20;;
6027;SDS011;3042;43.194;27.646;2022-11-12T09:27:44;11.20;;;5.63;;
6027;SDS011;3042;43.194;27.646;2022-11-12T09:30:11;5.10;;;4.80;;
6027;SDS011;3042;43.194;27.646;2022-11-12T09:32:39;5.67;;;5.27;;
6027;SDS011;3042;43.194;27.646;2022-11-12T09:35:06;5.70;;;5.30;;
6027;SDS011;3042;43.194;27.646;2022-11-12T09:37:35;4.17;;;3.97;;
6027;SDS011;3042;43.194;27.646;2022-11-12T09:40:03;5.43;;;5.00;;
6027;SDS011;3042;43.194;27.646;2022-11-12T09:42:34;5.53;;;5.23;;
6027;SDS011;3042;43.194;27.646;2022-11-12T09:45:04;5.57;;;5.17;;
6027;SDS011;3042;43.194;27.646;2022-11-12T09:47:37;6.50;;;5.87;;
6027;SDS011;3042;43.194;27.646;2022-11-12T09:50:15;10.30;;;9.30;;
6027;SDS011;3042;43.194;27.646;2022-11-12T09:52:47;21.30;;;15.40;;
6027;SDS011;3042;43.194;27.646;2022-11-12T09:55:21;36.10;;;25.47;;
6027;SDS011;3042;43.194;27.646;2022-11-12T09:57:57;20.33;;;16.07;;
6027;SDS011;3042;43.194;27.646;2022-11-12T10:00:24;24.03;;;15.80;;
6027;SDS011;3042;43.194;27.646;2022-11-12T10:02:52;13.87;;;11.20;;
6027;SDS011;3042;43.194;27.646;2022-11-12T10:05:27;23.40;;;15.70;;
6027;SDS011;3042;43.194;27.646;2022-11-12T10:08:02;40.10;;;27.90;;
6027;SDS011;3042;43.194;27.646;2022-11-12T10:10:52;48.27;;;32.90;;
6027;SDS011;3042;43.194;27.646;2022-11-12T10:13:33;60.47;;;39.23;;
6027;SDS011;3042;43.194;27.646;2022-11-12T10:16:17;65.13;;;40.10;;
6027;SDS011;3042;43.194;27.646;2022-11-12T10:19:18;55.13;;;31.23;;
6027;SDS011;3042;43.194;27.646;2022-11-12T10:22:04;23.57;;;18.40;;
6027;SDS011;3042;43.194;27.646;2022-11-12T10:24:42;23.33;;;15.70;;
6027;SDS011;3042;43.194;27.646;2022-11-12T10:27:12;11.20;;;7.70;;
6027;SDS011;3042;43.194;27.646;2022-11-12T10:29:48;14.57;;;7.60;;
6027;SDS011;3042;43.194;27.646;2022-11-12T10:32:20;8.63;;;7.37;;
6027;SDS011;3042;43.194;27.646;2022-11-12T10:34:47;21.93;;;7.50;;
6027;SDS011;3042;43.194;27.646;2022-11-12T10:37:16;11.77;;;6.73;;
6027;SDS011;3042;43.194;27.646;2022-11-12T10:42:55;28.77;;;18.70;;
6027;SDS011;3042;43.194;27.646;2022-11-12T10:45:25;72.70;;;40.03;;
6027;SDS011;3042;43.194;27.646;2022-11-12T10:47:53;96.33;;;45.83;;
6027;SDS011;3042;43.194;27.646;2022-11-12T10:50:21;143.07;;;68.07;;
6027;SDS011;3042;43.194;27.646;2022-11-12T10:52:54;125.10;;;70.47;;
6027;SDS011;3042;43.194;27.646;2022-11-12T10:55:24;21.47;;;19.17;;
6027;SDS011;3042;43.194;27.646;2022-11-12T11:00:52;69.53;;;40.17;;
6027;SDS011;3042;43.194;27.646;2022-11-12T11:03:22;16.00;;;10.40;;
6027;SDS011;3042;43.194;27.646;2022-11-12T11:05:52;9.80;;;7.13;;
6027;SDS011;3042;43.194;27.646;2022-11-12T11:08:31;7.57;;;6.87;;
6027;SDS011;3042;43.194;27.646;2022-11-12T11:11:13;8.40;;;7.00;;
6027;SDS011;3042;43.194;27.646;2022-11-12T11:13:45;8.03;;;7.23;;
6027;SDS011;3042;43.194;27.646;2022-11-12T11:16:15;13.13;;;8.50;;
6027;SDS011;3042;43.194;27.646;2022-11-12T11:18:45;15.93;;;8.07;;
6027;SDS011;3042;43.194;27.646;2022-11-12T11:24:24;8.83;;;7.90;;
6027;SDS011;3042;43.194;27.646;2022-11-12T11:27:02;10.30;;;8.50;;
6027;SDS011;3042;43.194;27.646;2022-11-12T11:29:40;16.63;;;9.30;;
6027;SDS011;3042;43.194;27.646;2022-11-12T11:32:27;10.60;;;8.10;;
6027;SDS011;3042;43.194;27.646;2022-11-12T11:35:05;14.33;;;8.30;;
6027;SDS011;3042;43.194;27.646;2022-11-12T11:37:45;12.80;;;10.03;;
6027;SDS011;3042;43.194;27.646;2022-11-12T11:40:24;17.77;;;12.77;;
6027;SDS011;3042;43.194;27.646;2022-11-12T11:43:04;97.67;;;54.07;;
6027;SDS011;3042;43.194;27.646;2022-11-12T11:48:48;18.43;;;15.83;;
6027;SDS011;3042;43.194;27.646;2022-11-12T11:51:32;40.17;;;23.10;;
6027;SDS011;3042;43.194;27.646;2022-11-12T11:54:08;37.20;;;11.07;;
6027;SDS011;3042;43.194;27.646;2022-11-12T11:56:47;15.63;;;12.77;;
6027;SDS011;3042;43.194;27.646;2022-11-12T11:59:21;13.73;;;12.27;;
6027;SDS011;3042;43.194;27.646;2022-11-12T12:02:13;15.67;;;11.10;;
6027;SDS011;3042;43.194;27.646;2022-11-12T12:05:03;15.47;;;11.27;;
6027;SDS011;3042;43.194;27.646;2022-11-12T12:07:48;20.50;;;14.53;;
6027;SDS011;3042;43.194;27.646;2022-11-12T12:10:24;8.20;;;6.30;;
6027;SDS011;3042;43.194;27.646;2022-11-12T12:12:56;14.10;;;8.33;;
6027;SDS011;3042;43.194;27.646;2022-11-12T12:15:37;30.80;;;21.90;;
6027;SDS011;3042;43.194;27.646;2022-11-12T12:18:15;16.57;;;14.53;;
6027;SDS011;3042;43.194;27.646;2022-11-12T12:20:57;12.50;;;9.43;;
6027;SDS011;3042;43.194;27.646;2022-11-12T12:23:30;20.63;;;13.97;;
6027;SDS011;3042;43.194;27.646;2022-11-12T12:26:02;27.13;;;20.70;;
6027;SDS011;3042;43.194;27.646;2022-11-12T12:28:38;61.23;;;36.47;;
6027;SDS011;3042;43.194;27.646;2022-11-12T12:31:10;22.67;;;11.93;;
6027;SDS011;3042;43.194;27.646;2022-11-12T12:33:42;22.20;;;15.80;;
6027;SDS011;3042;43.194;27.646;2022-11-12T12:36:18;25.57;;;16.03;;
6027;SDS011;3042;43.194;27.646;2022-11-12T12:38:51;12.47;;;8.53;;
6027;SDS011;3042;43.194;27.646;2022-11-12T12:41:29;17.63;;;10.07;;
6027;SDS011;3042;43.194;27.646;2022-11-12T12:44:04;13.07;;;9.60;;
6027;SDS011;3042;43.194;27.646;2022-11-12T12:46:33;9.80;;;8.83;;
6027;SDS011;3042;43.194;27.646;2022-11-12T12:49:06;12.80;;;9.20;;
6027;SDS011;3042;43.194;27.646;2022-11-12T12:51:38;15.43;;;9.60;;
6027;SDS011;3042;43.194;27.646;2022-11-12T12:57:24;10.47;;;9.30;;
6027;SDS011;3042;43.194;27.646;2022-11-12T13:02:52;17.10;;;12.90;;
6027;SDS011;3042;43.194;27.646;2022-11-12T13:05:26;130.70;;;66.53;;
6027;SDS011;3042;43.194;27.646;2022-11-12T13:07:58;50.27;;;27.50;;
6027;SDS011;3042;43.194;27.646;2022-11-12T13:13:27;29.87;;;22.47;;
6027;SDS011;3042;43.194;27.646;2022-11-12T13:15:57;38.30;;;21.10;;
6027;SDS011;3042;43.194;27.646;2022-11-12T13:21:23;30.27;;;18.50;;
6027;SDS011;3042;43.194;27.646;2022-11-12T13:23:53;32.17;;;21.00;;
6027;SDS011;3042;43.194;27.646;2022-11-12T13:29:24;75.57;;;35.10;;
6027;SDS011;3042;43.194;27.646;2022-11-12T13:37:58;46.90;;;31.17;;
6027;SDS011;3042;43.194;27.646;2022-11-12T13:40:35;53.03;;;30.07;;
6027;SDS011;3042;43.194;27.646;2022-11-12T13:43:09;34.30;;;20.60;;
6027;SDS011;3042;43.194;27.646;2022-11-12T13:45:45;52.23;;;26.27;;
6027;SDS011;3042;43.194;27.646;2022-11-12T13:48:16;72.07;;;40.07;;
6027;SDS011;3042;43.194;27.646;2022-11-12T13:50:49;22.97;;;17.33;;
6027;SDS011;3042;43.194;27.646;2022-11-12T13:53:21;29.73;;;25.90;;
6027;SDS011;3042;43.194;27.646;2022-11-12T13:55:52;47.50;;;37.53;;
6027;SDS011;3042;43.194;27.646;2022-11-12T13:58:29;50.40;;;37.67;;
6027;SDS011;3042;43.194;27.646;2022-11-12T14:00:58;38.13;;;31.13;;
6027;SDS011;3042;43.194;27.646;2022-11-12T14:03:27;31.00;;;24.27;;
6027;SDS011;3042;43.194;27.646;2022-11-12T14:05:57;20.83;;;17.87;;
6027;SDS011;3042;43.194;27.646;2022-11-12T14:08:45;18.57;;;16.57;;
6027;SDS011;3042;43.194;27.646;2022-11-12T14:11:39;35.10;;;28.80;;
6027;SDS011;3042;43.194;27.646;2022-11-12T14:14:21;49.50;;;35.67;;
6027;SDS011;3042;43.194;27.646;2022-11-12T14:17:01;72.40;;;34.20;;
6027;SDS011;3042;43.194;27.646;2022-11-12T14:22:49;38.53;;;32.03;;
6027;SDS011;3042;43.194;27.646;2022-11-12T14:25:17;26.60;;;21.97;;
6027;SDS011;3042;43.194;27.646;2022-11-12T14:27:47;28.73;;;24.57;;
6027;SDS011;3042;43.194;27.646;2022-11-12T14:30:16;20.60;;;10.93;;
6027;SDS011;3042;43.194;27.646;2022-11-12T14:32:47;12.33;;;8.57;;
6027;SDS011;3042;43.194;27.646;2022-11-12T14:35:19;9.70;;;8.70;;
6027;SDS011;3042;43.194;27.646;2022-11-12T14:38:05;13.77;;;11.63;;
6027;SDS011;3042;43.194;27.646;2022-11-12T14:40:41;30.77;;;17.30;;
6027;SDS011;3042;43.194;27.646;2022-11-12T14:43:19;23.53;;;17.20;;
6027;SDS011;3042;43.194;27.646;2022-11-12T14:45:50;14.43;;;11.20;;
6027;SDS011;3042;43.194;27.646;2022-11-12T14:48:19;30.00;;;18.60;;
6027;SDS011;3042;43.194;27.646;2022-11-12T14:50:48;20.13;;;18.00;;
6027;SDS011;3042;43.194;27.646;2022-11-12T14:53:20;56.40;;;41.90;;
6027;SDS011;3042;43.194;27.646;2022-11-12T14:55:52;72.33;;;49.63;;
6027;SDS011;3042;43.194;27.646;2022-11-12T14:58:23;98.67;;;50.97;;
6027;SDS011;3042;43.194;27.646;2022-11-12T15:00:52;96.97;;;49.83;;
6027;SDS011;3042;43.194;27.646;2022-11-12T15:03:21;90.80;;;51.37;;
6027;SDS011;3042;43.194;27.646;2022-11-12T15:06:07;72.40;;;51.43;;
6027;SDS011;3042;43.194;27.646;2022-11-12T15:08:37;63.63;;;44.90;;
6027;SDS011;3042;43.194;27.646;2022-11-12T15:11:15;89.00;;;47.13;;
6027;SDS011;3042;43.194;27.646;2022-11-12T15:13:47;74.77;;;43.60;;
6027;SDS011;3042;43.194;27.646;2022-11-12T15:16:17;126.27;;;65.07;;
6027;SDS011;3042;43.194;27.646;2022-11-12T15:18:59;147.40;;;61.23;;
6027;SDS011;3042;43.194;27.646;2022-11-12T15:21:30;155.20;;;64.93;;
6027;SDS011;3042;43.194;27.646;2022-11-12T15:24:00;62.17;;;27.57;;
6027;SDS011;3042;43.194;27.646;2022-11-12T15:26:32;151.30;;;77.63;;
6027;SDS011;3042;43.194;27.646;2022-11-12T15:29:12;147.90;;;70.80;;
6027;SDS011;3042;43.194;27.646;2022-11-12T15:31:47;128.63;;;66.83;;
6027;SDS011;3042;43.194;27.646;2022-11-12T15:34:20;107.00;;;50.30;;
6027;SDS011;3042;43.194;27.646;2022-11-12T15:36:52;113.27;;;40.33;;